createdAt,value
2023-04-27T00:00:57.327Z,6.59
2023-04-27T00:01:57.330Z,6.56
2023-04-27T00:02:57.429Z,6.66
2023-04-27T00:03:57.362Z,6.61
2023-04-27T00:04:57.465Z,6.64
2023-04-27T00:05:57.328Z,6.62
2023-04-27T00:06:57.274Z,6.66
2023-04-27T00:07:57.258Z,6.59
2023-04-27T00:08:57.231Z,6.66
2023-04-27T00:09:57.257Z,6.61
2023-04-27T00:10:57.222Z,6.58
2023-04-27T00:11:57.203Z,6.64
2023-04-27T00:12:57.190Z,6.67
2023-04-27T00:13:57.215Z,6.58
2023-04-27T00:14:57.192Z,6.61
2023-04-27T00:15:57.207Z,6.66
2023-04-27T00:16:57.155Z,6.52
2023-04-27T00:17:57.174Z,6.46
2023-04-27T00:18:57.138Z,6.51
2023-04-27T00:19:57.149Z,6.43
2023-04-27T00:20:57.150Z,6.48
2023-04-27T00:21:57.129Z,6.59
2023-04-27T00:22:57.094Z,6.55
2023-04-27T00:23:57.093Z,6.49
2023-04-27T00:24:57.073Z,6.51
2023-04-27T00:25:57.076Z,6.41
2023-04-27T00:26:57.091Z,6.48
2023-04-27T00:27:57.049Z,6.40
2023-04-27T00:28:57.041Z,6.40
2023-04-27T00:29:57.043Z,6.40
2023-04-27T00:30:57.023Z,6.43
2023-04-27T00:31:57.036Z,6.25
2023-04-27T00:32:57.002Z,6.21
2023-04-27T00:33:56.991Z,6.11
2023-04-27T00:34:56.988Z,6.18
2023-04-27T00:35:56.967Z,6.15
2023-04-27T00:36:56.984Z,6.12
2023-04-27T00:37:56.951Z,6.21
2023-04-27T00:38:56.949Z,6.17
2023-04-27T00:39:56.923Z,6.15
2023-04-27T00:40:56.934Z,6.17
2023-04-27T00:41:56.933Z,6.21
2023-04-27T00:42:56.916Z,6.19
2023-04-27T00:43:56.884Z,6.12
2023-04-27T00:44:56.897Z,6.06
2023-04-27T00:45:56.930Z,6.11
2023-04-27T00:46:56.857Z,6.08
2023-04-27T00:47:56.967Z,6.18
2023-04-27T00:48:56.850Z,6.12
2023-04-27T00:49:56.860Z,6.08
2023-04-27T00:50:56.816Z,6.11
2023-04-27T00:51:56.813Z,6.11
2023-04-27T00:52:56.790Z,6.08
2023-04-27T00:53:56.854Z,5.97
2023-04-27T00:54:56.799Z,5.86
2023-04-27T00:55:56.783Z,5.96
2023-04-27T00:56:56.768Z,5.90
2023-04-27T00:57:56.765Z,6.03
2023-04-27T00:58:56.742Z,5.97
2023-04-27T00:59:56.751Z,6.01
2023-04-27T01:00:56.757Z,5.86
2023-04-27T01:01:56.747Z,5.96
2023-04-27T01:02:56.938Z,5.83
2023-04-27T01:03:56.966Z,5.90
2023-04-27T01:04:56.678Z,6.00
2023-04-27T01:05:56.680Z,5.93
2023-04-27T01:06:56.661Z,5.96
2023-04-27T01:07:56.663Z,5.97
2023-04-27T01:08:56.638Z,5.99
2023-04-27T01:09:56.622Z,6.04
2023-04-27T01:10:56.612Z,6.00
2023-04-27T01:11:56.610Z,5.89
2023-04-27T01:12:56.646Z,5.94
2023-04-27T01:13:56.594Z,6.00
2023-04-27T01:14:56.582Z,5.89
2023-04-27T01:15:56.567Z,5.81
2023-04-27T01:16:56.626Z,5.78
2023-04-27T01:17:56.589Z,5.78
2023-04-27T01:18:56.546Z,5.72
2023-04-27T01:19:56.527Z,5.72
2023-04-27T01:20:56.519Z,5.74
2023-04-27T01:21:56.520Z,5.72
2023-04-27T01:22:56.496Z,5.65
2023-04-27T01:23:56.504Z,5.67
2023-04-27T01:24:56.538Z,5.63
2023-04-27T01:25:56.476Z,5.58
2023-04-27T01:26:56.496Z,5.67
2023-04-27T01:27:56.489Z,5.61
2023-04-27T01:28:56.481Z,5.60
2023-04-27T01:29:56.441Z,5.68
2023-04-27T01:30:56.484Z,5.63
2023-04-27T01:31:56.411Z,5.75
2023-04-27T01:32:56.442Z,5.61
2023-04-27T01:33:56.445Z,5.61
2023-04-27T01:34:56.389Z,5.58
2023-04-27T01:35:56.391Z,5.65
2023-04-27T01:36:56.367Z,5.74
2023-04-27T01:37:56.384Z,5.78
2023-04-27T01:38:56.383Z,5.76
2023-04-27T01:39:56.346Z,5.65
2023-04-27T01:40:56.342Z,5.75
2023-04-27T01:41:58.387Z,5.78
2023-04-27T01:42:57.315Z,5.72
2023-04-27T01:43:56.325Z,5.74
2023-04-27T01:44:56.308Z,5.67
2023-04-27T01:45:56.333Z,5.65
2023-04-27T01:46:56.281Z,5.72
2023-04-27T01:47:56.330Z,5.78
2023-04-27T01:48:56.258Z,5.71
2023-04-27T01:49:56.264Z,5.81
2023-04-27T01:50:56.267Z,5.79
2023-04-27T01:51:56.225Z,5.78
2023-04-27T01:52:56.249Z,5.82
2023-04-27T01:53:56.209Z,5.79
2023-04-27T01:54:57.224Z,5.85
2023-04-27T01:55:56.204Z,5.83
2023-04-27T01:56:57.212Z,5.93
2023-04-27T01:57:56.174Z,5.83
2023-04-27T01:58:56.157Z,5.97
2023-04-27T01:59:56.266Z,6.04
2023-04-27T02:00:56.154Z,6.06
2023-04-27T02:01:56.222Z,6.03
2023-04-27T02:02:56.205Z,5.94
2023-04-27T02:03:56.278Z,5.79
2023-04-27T02:04:56.192Z,5.83
2023-04-27T02:05:56.100Z,5.74
2023-04-27T02:06:56.094Z,5.78
2023-04-27T02:07:56.080Z,5.78
2023-04-27T02:08:56.084Z,5.78
2023-04-27T02:09:56.071Z,5.76
2023-04-27T02:10:56.050Z,5.78
2023-04-27T02:11:56.046Z,5.75
2023-04-27T02:12:56.038Z,5.63
2023-04-27T02:13:56.045Z,5.67
2023-04-27T02:14:56.029Z,5.81
2023-04-27T02:15:56.054Z,5.82
2023-04-27T02:16:55.996Z,5.75
2023-04-27T02:17:56.101Z,5.91
2023-04-27T02:18:55.999Z,5.78
2023-04-27T02:19:55.981Z,5.76
2023-04-27T02:20:55.971Z,5.78
2023-04-27T02:21:55.970Z,5.78
2023-04-27T02:22:55.940Z,5.78
2023-04-27T02:23:55.922Z,5.97
2023-04-27T02:24:55.930Z,5.93
2023-04-27T02:25:55.903Z,5.89
2023-04-27T02:26:55.906Z,5.82
2023-04-27T02:27:55.904Z,5.91
2023-04-27T02:28:55.931Z,5.93
2023-04-27T02:29:55.893Z,5.85
2023-04-27T02:30:55.853Z,5.85
2023-04-27T02:31:55.942Z,6.01
2023-04-27T02:32:55.859Z,5.96
2023-04-27T02:33:55.842Z,5.93
2023-04-27T02:34:55.819Z,6.03
2023-04-27T02:35:55.822Z,5.94
2023-04-27T02:36:55.795Z,5.89
2023-04-27T02:37:55.791Z,5.82
2023-04-27T02:38:55.779Z,5.72
2023-04-27T02:39:55.775Z,5.61
2023-04-27T02:40:55.781Z,5.58
2023-04-27T02:41:55.767Z,5.45
2023-04-27T02:42:55.739Z,5.40
2023-04-27T02:43:55.746Z,5.42
2023-04-27T02:44:55.721Z,5.46
2023-04-27T02:45:55.704Z,5.31
2023-04-27T02:46:55.746Z,5.40
2023-04-27T02:47:55.781Z,5.40
2023-04-27T02:48:55.704Z,5.36
2023-04-27T02:49:55.698Z,5.38
2023-04-27T02:50:55.663Z,5.49
2023-04-27T02:51:55.631Z,5.53
2023-04-27T02:52:55.642Z,5.60
2023-04-27T02:53:55.643Z,5.63
2023-04-27T02:54:55.630Z,5.67
2023-04-27T02:55:55.604Z,5.74
2023-04-27T02:56:55.631Z,5.67
2023-04-27T02:57:55.585Z,5.78
2023-04-27T02:58:55.575Z,5.96
2023-04-27T02:59:55.627Z,5.94
2023-04-27T03:00:55.658Z,5.89
2023-04-27T03:01:55.568Z,5.90
2023-04-27T03:02:55.687Z,5.91
2023-04-27T03:03:55.694Z,6.12
2023-04-27T03:04:55.554Z,6.09
2023-04-27T03:05:55.534Z,6.15
2023-04-27T03:06:55.523Z,6.18
2023-04-27T03:08:27.412Z,6.25
2023-04-27T03:08:55.501Z,6.25
2023-04-27T03:09:55.482Z,6.30
2023-04-27T03:10:55.492Z,6.27
2023-04-27T03:11:55.464Z,6.27
2023-04-27T03:12:55.460Z,6.25
2023-04-27T03:13:55.446Z,6.14
2023-04-27T03:14:55.421Z,6.17
2023-04-27T03:15:55.434Z,6.15
2023-04-27T03:16:55.453Z,6.15
2023-04-27T03:17:55.481Z,6.18
2023-04-27T03:18:55.396Z,6.18
2023-04-27T03:19:55.461Z,6.18
2023-04-27T03:20:55.375Z,5.96
2023-04-27T03:21:55.366Z,5.99
2023-04-27T03:22:55.394Z,5.93
2023-04-27T03:23:55.363Z,5.99
2023-04-27T03:24:55.333Z,5.99
2023-04-27T03:25:55.360Z,6.04
2023-04-27T03:26:55.323Z,6.01
2023-04-27T03:27:55.316Z,6.01
2023-04-27T03:28:55.317Z,6.08
2023-04-27T03:29:55.286Z,6.00
2023-04-27T03:30:55.292Z,6.06
2023-04-27T03:31:55.315Z,5.94
2023-04-27T03:32:55.305Z,5.94
2023-04-27T03:33:55.270Z,5.93
2023-04-27T03:34:55.292Z,5.85
2023-04-27T03:35:55.242Z,5.90
2023-04-27T03:36:55.222Z,5.83
2023-04-27T03:37:55.220Z,5.81
2023-04-27T03:38:55.210Z,5.91
2023-04-27T03:39:55.219Z,5.79
2023-04-27T03:40:55.202Z,5.79
2023-04-27T03:41:55.228Z,5.78
2023-04-27T03:42:55.484Z,5.58
2023-04-27T03:43:55.231Z,5.58
2023-04-27T03:44:55.157Z,5.57
2023-04-27T03:45:55.232Z,5.54
2023-04-27T03:46:55.125Z,5.56
2023-04-27T03:47:55.167Z,5.57
2023-04-27T03:48:55.142Z,5.48
2023-04-27T03:49:55.111Z,5.57
2023-04-27T03:50:55.090Z,5.42
2023-04-27T03:51:55.141Z,5.48
2023-04-27T03:52:55.066Z,5.40
2023-04-27T03:53:55.080Z,5.38
2023-04-27T03:54:55.059Z,5.28
2023-04-27T03:55:55.041Z,5.36
2023-04-27T03:56:55.025Z,5.33
2023-04-27T03:57:55.048Z,5.27
2023-04-27T03:58:55.037Z,5.21
2023-04-27T03:59:55.028Z,5.24
2023-04-27T04:00:54.993Z,5.21
2023-04-27T04:01:55.040Z,5.24
2023-04-27T04:02:55.123Z,5.21
2023-04-27T04:03:55.132Z,5.24
2023-04-27T04:04:55.060Z,5.17
2023-04-27T04:05:54.985Z,5.25
2023-04-27T04:06:54.923Z,5.28
2023-04-27T04:07:54.918Z,5.12
2023-04-27T04:08:54.945Z,5.18
2023-04-27T04:09:54.908Z,5.22
2023-04-27T04:10:54.895Z,5.17
2023-04-27T04:11:54.882Z,5.24
2023-04-27T04:12:54.867Z,5.20
2023-04-27T04:13:54.887Z,5.18
2023-04-27T04:14:54.890Z,5.20
2023-04-27T04:15:54.867Z,5.25
2023-04-27T04:16:54.867Z,5.18
2023-04-27T04:17:54.863Z,5.27
2023-04-27T04:18:54.822Z,5.25
2023-04-27T04:19:54.825Z,5.36
2023-04-27T04:20:54.829Z,5.31
2023-04-27T04:21:54.820Z,5.27
2023-04-27T04:22:54.787Z,5.24
2023-04-27T04:23:54.776Z,5.25
2023-04-27T04:24:54.759Z,5.30
2023-04-27T04:25:54.765Z,5.28
2023-04-27T04:26:54.744Z,5.38
2023-04-27T04:27:54.736Z,5.35
2023-04-27T04:28:54.719Z,5.36
2023-04-27T04:29:54.716Z,5.40
2023-04-27T04:30:54.808Z,5.24
2023-04-27T04:31:54.691Z,5.33
2023-04-27T04:32:54.706Z,5.33
2023-04-27T04:33:54.687Z,5.35
2023-04-27T04:34:54.692Z,5.20
2023-04-27T04:35:54.686Z,5.28
2023-04-27T04:36:54.629Z,5.31
2023-04-27T04:37:54.635Z,5.28
2023-04-27T04:38:54.607Z,5.27
2023-04-27T04:39:54.649Z,5.39
2023-04-27T04:40:54.614Z,5.43
2023-04-27T04:41:54.592Z,5.53
2023-04-27T04:42:54.582Z,5.48
2023-04-27T04:43:54.575Z,5.57
2023-04-27T04:44:54.573Z,5.57
2023-04-27T04:45:54.548Z,5.74
2023-04-27T04:46:54.642Z,5.93
2023-04-27T04:47:54.645Z,5.89
2023-04-27T04:48:54.945Z,5.83
2023-04-27T04:49:55.522Z,5.97
2023-04-27T04:50:54.511Z,5.85
2023-04-27T04:51:54.520Z,5.91
2023-04-27T04:52:54.503Z,5.93
2023-04-27T04:53:54.478Z,5.86
2023-04-27T04:54:54.489Z,5.90
2023-04-27T04:55:54.444Z,5.85
2023-04-27T04:56:54.446Z,5.89
2023-04-27T04:57:54.441Z,5.96
2023-04-27T04:58:54.419Z,6.00
2023-04-27T04:59:54.444Z,6.15
2023-04-27T05:00:54.432Z,6.21
2023-04-27T05:01:54.407Z,6.33
2023-04-27T05:02:54.595Z,6.27
2023-04-27T05:03:54.481Z,6.37
2023-04-27T05:04:54.577Z,6.27
2023-04-27T05:05:54.384Z,6.33
2023-04-27T05:06:54.347Z,6.31
2023-04-27T05:07:54.353Z,6.48
2023-04-27T05:08:54.356Z,6.59
2023-04-27T05:09:54.321Z,6.61
2023-04-27T05:10:54.338Z,6.77
2023-04-27T05:11:54.305Z,6.61
2023-04-27T05:12:54.292Z,6.66
2023-04-27T05:13:54.289Z,6.69
2023-04-27T05:14:54.277Z,6.69
2023-04-27T05:15:54.306Z,6.58
2023-04-27T05:16:54.271Z,6.54
2023-04-27T05:17:54.376Z,6.54
2023-04-27T05:18:54.227Z,6.70
2023-04-27T05:19:54.246Z,6.67
2023-04-27T05:20:54.207Z,6.62
2023-04-27T05:21:54.242Z,6.84
2023-04-27T05:22:54.211Z,6.69
2023-04-27T05:23:54.179Z,6.77
2023-04-27T05:24:54.163Z,6.67
2023-04-27T05:25:54.154Z,6.71
2023-04-27T05:26:54.163Z,6.67
2023-04-27T05:27:54.153Z,6.70
2023-04-27T05:28:54.152Z,6.70
2023-04-27T05:29:54.131Z,6.74
2023-04-27T05:30:54.147Z,6.91
2023-04-27T05:31:54.174Z,6.87
2023-04-27T05:32:54.121Z,6.91
2023-04-27T05:33:54.075Z,7.13
2023-04-27T05:34:54.111Z,7.60
2023-04-27T05:35:54.058Z,8.95
2023-04-27T05:36:54.066Z,9.39
2023-04-27T05:37:54.046Z,10.02
2023-04-27T05:38:54.031Z,10.86
2023-04-27T05:39:54.047Z,11.09
2023-04-27T05:40:55.496Z,10.48
2023-04-27T05:41:55.007Z,10.26
2023-04-27T05:42:53.989Z,10.33
2023-04-27T05:43:53.990Z,11.42
2023-04-27T05:44:53.993Z,12.05
2023-04-27T05:45:54.035Z,12.52
2023-04-27T05:46:53.948Z,12.35
2023-04-27T05:47:54.023Z,12.24
2023-04-27T05:48:53.937Z,12.65
2023-04-27T05:49:53.926Z,13.51
2023-04-27T05:50:53.935Z,13.33
2023-04-27T05:51:53.920Z,13.14
2023-04-27T05:52:53.892Z,13.51
2023-04-27T05:53:53.887Z,13.52
2023-04-27T05:54:53.895Z,13.23
2023-04-27T05:55:53.879Z,13.15
2023-04-27T05:56:53.862Z,13.08
2023-04-27T05:58:04.583Z,12.54
2023-04-27T05:58:54.855Z,12.49
2023-04-27T05:59:53.819Z,12.41
2023-04-27T06:00:53.835Z,12.97
2023-04-27T06:01:53.813Z,13.95
2023-04-27T06:02:53.857Z,15.06
2023-04-27T06:03:53.934Z,15.87
2023-04-27T06:04:53.808Z,16.57
2023-04-27T06:05:53.783Z,16.41
2023-04-27T06:06:53.778Z,15.46
2023-04-27T06:07:53.796Z,14.52
2023-04-27T06:08:53.780Z,13.92
2023-04-27T06:09:53.753Z,14.32
2023-04-27T06:10:53.719Z,14.12
2023-04-27T06:11:53.708Z,14.09
2023-04-27T06:12:53.706Z,14.09
2023-04-27T06:13:53.705Z,14.28
2023-04-27T06:14:53.676Z,14.62
2023-04-27T06:15:53.742Z,14.96
2023-04-27T06:16:53.653Z,15.32
2023-04-27T06:17:53.705Z,15.29
2023-04-27T06:18:53.680Z,15.57
2023-04-27T06:19:53.634Z,16.05
2023-04-27T06:20:53.624Z,16.11
2023-04-27T06:21:53.608Z,16.07
2023-04-27T06:22:53.645Z,16.76
2023-04-27T06:23:53.600Z,16.85
2023-04-27T06:24:53.581Z,16.89
2023-04-27T06:25:53.551Z,16.91
2023-04-27T06:26:53.563Z,16.83
2023-04-27T06:27:53.555Z,16.88
2023-04-27T06:28:53.562Z,16.78
2023-04-27T06:29:53.534Z,16.56
2023-04-27T06:30:53.526Z,15.53
2023-04-27T06:31:53.551Z,14.75
2023-04-27T06:32:53.559Z,15.28
2023-04-27T06:33:53.506Z,16.14
2023-04-27T06:34:53.490Z,16.70
2023-04-27T06:35:53.514Z,16.89
2023-04-27T06:36:53.483Z,17.07
2023-04-27T06:37:53.470Z,17.12
2023-04-27T06:38:53.441Z,17.01
2023-04-27T06:39:53.455Z,16.01
2023-04-27T06:40:53.450Z,14.45
2023-04-27T06:41:53.406Z,13.55
2023-04-27T06:42:53.431Z,12.47
2023-04-27T06:43:53.395Z,11.52
2023-04-27T06:44:53.390Z,11.51
2023-04-27T06:45:53.536Z,11.78
2023-04-27T06:46:53.377Z,11.90
2023-04-27T06:47:53.421Z,12.16
2023-04-27T06:48:53.349Z,12.02
2023-04-27T06:49:53.347Z,12.23
2023-04-27T06:50:53.353Z,12.04
2023-04-27T06:51:53.335Z,11.99
2023-04-27T06:52:53.419Z,11.62
2023-04-27T06:53:53.294Z,11.40
2023-04-27T06:54:53.301Z,11.57
2023-04-27T06:55:53.290Z,11.32
2023-04-27T06:56:53.285Z,11.15
2023-04-27T06:57:53.293Z,11.24
2023-04-27T06:58:53.269Z,11.06
2023-04-27T06:59:53.242Z,10.99
2023-04-27T07:00:53.242Z,11.11
2023-04-27T07:01:53.309Z,11.22
2023-04-27T07:02:53.309Z,11.42
2023-04-27T07:03:53.338Z,11.78
2023-04-27T07:04:53.221Z,11.61
2023-04-27T07:05:53.217Z,11.33
2023-04-27T07:06:53.193Z,11.33
2023-04-27T07:07:53.178Z,11.88
2023-04-27T07:08:53.179Z,12.57
2023-04-27T07:09:53.160Z,12.78
2023-04-27T07:10:53.441Z,13.66
2023-04-27T07:11:53.133Z,13.79
2023-04-27T07:12:53.162Z,14.14
2023-04-27T07:13:53.117Z,13.69
2023-04-27T07:14:53.111Z,13.42
2023-04-27T07:15:53.125Z,13.05
2023-04-27T07:16:53.085Z,12.78
2023-04-27T07:17:53.100Z,13.17
2023-04-27T07:18:53.152Z,14.24
2023-04-27T07:19:53.050Z,14.42
2023-04-27T07:20:53.055Z,15.02
2023-04-27T07:21:53.037Z,14.24
2023-04-27T07:22:53.049Z,14.29
2023-04-27T07:23:54.438Z,14.72
2023-04-27T07:24:53.048Z,15.03
2023-04-27T07:25:53.038Z,14.52
2023-04-27T07:26:52.995Z,13.62
2023-04-27T07:27:52.977Z,13.32
2023-04-27T07:28:52.966Z,13.39
2023-04-27T07:29:52.959Z,14.17
2023-04-27T07:30:52.974Z,14.25
2023-04-27T07:31:53.076Z,14.65
2023-04-27T07:32:53.003Z,15.39
2023-04-27T07:33:52.933Z,15.82
2023-04-27T07:34:54.315Z,16.05
2023-04-27T07:35:54.061Z,16.08
2023-04-27T07:36:52.919Z,15.69
2023-04-27T07:37:52.881Z,15.28
2023-04-27T07:38:52.887Z,15.32
2023-04-27T07:39:52.865Z,15.27
2023-04-27T07:40:52.854Z,15.25
2023-04-27T07:41:52.927Z,15.62
2023-04-27T07:42:52.842Z,15.01
2023-04-27T07:43:52.824Z,14.03
2023-04-27T07:44:52.923Z,13.71
2023-04-27T07:45:52.825Z,14.54
2023-04-27T07:46:52.798Z,15.20
2023-04-27T07:47:52.790Z,15.54
2023-04-27T07:48:52.798Z,16.31
2023-04-27T07:49:52.759Z,16.71
2023-04-27T07:50:52.751Z,16.97
2023-04-27T07:51:52.743Z,17.16
2023-04-27T07:52:53.765Z,17.03
2023-04-27T07:53:52.766Z,16.94
2023-04-27T07:54:52.742Z,16.83
2023-04-27T07:55:52.731Z,16.79
2023-04-27T07:56:52.706Z,16.38
2023-04-27T07:57:52.704Z,16.42
2023-04-27T07:58:52.687Z,16.50
2023-04-27T07:59:52.714Z,16.48
2023-04-27T08:00:52.658Z,16.64
2023-04-27T08:01:54.359Z,16.71
2023-04-27T08:02:52.925Z,17.01
2023-04-27T08:03:52.853Z,16.89
2023-04-27T08:04:52.834Z,16.42
2023-04-27T08:05:52.974Z,16.21
2023-04-27T08:06:53.190Z,16.42
2023-04-27T08:07:53.138Z,16.61
2023-04-27T08:08:52.577Z,16.93
2023-04-27T08:09:52.612Z,16.85
2023-04-27T08:10:52.571Z,16.56
2023-04-27T08:11:52.565Z,16.56
2023-04-27T08:12:52.545Z,16.39
2023-04-27T08:13:52.579Z,16.49
2023-04-27T08:14:52.513Z,16.93
2023-04-27T08:15:52.583Z,17.22
2023-04-27T08:16:52.544Z,17.15
2023-04-27T08:17:52.575Z,17.06
2023-04-27T08:18:52.507Z,16.94
2023-04-27T08:19:52.493Z,17.01
2023-04-27T08:20:52.462Z,17.22
2023-04-27T08:21:52.480Z,17.36
2023-04-27T08:22:52.455Z,17.03
2023-04-27T08:23:52.445Z,17.03
2023-04-27T08:24:52.438Z,17.38
2023-04-27T08:25:52.423Z,17.38
2023-04-27T08:26:52.427Z,17.25
2023-04-27T08:27:52.409Z,17.16
2023-04-27T08:28:52.388Z,17.18
2023-04-27T08:29:52.402Z,16.89
2023-04-27T08:30:53.490Z,16.93
2023-04-27T08:31:54.361Z,17.03
2023-04-27T08:32:52.422Z,17.06
2023-04-27T08:33:52.344Z,17.54
2023-04-27T08:34:52.341Z,18.18
2023-04-27T08:35:52.353Z,17.93
2023-04-27T08:36:52.323Z,17.44
2023-04-27T08:37:52.306Z,17.15
2023-04-27T08:38:52.299Z,17.07
2023-04-27T08:39:52.417Z,17.16
2023-04-27T08:40:52.283Z,17.44
2023-04-27T08:41:52.284Z,17.71
2023-04-27T08:42:52.254Z,17.41
2023-04-27T08:43:52.315Z,17.01
2023-04-27T08:44:52.229Z,16.64
2023-04-27T08:45:52.287Z,16.70
2023-04-27T08:46:52.288Z,16.63
2023-04-27T08:47:52.222Z,16.38
2023-04-27T08:48:52.193Z,16.64
2023-04-27T08:49:52.190Z,16.73
2023-04-27T08:50:52.190Z,16.98
2023-04-27T08:51:52.163Z,16.78
2023-04-27T08:52:52.186Z,16.85
2023-04-27T08:53:52.153Z,16.85
2023-04-27T08:54:52.143Z,17.01
2023-04-27T08:55:52.194Z,17.11
2023-04-27T08:56:52.141Z,17.15
2023-04-27T08:57:52.103Z,17.14
2023-04-27T08:58:52.179Z,17.25
2023-04-27T08:59:52.096Z,16.97
2023-04-27T09:00:52.678Z,17.12
2023-04-27T09:01:53.269Z,17.08
2023-04-27T09:02:52.158Z,17.03
2023-04-27T09:03:52.162Z,16.97
2023-04-27T09:04:52.142Z,17.00
2023-04-27T09:06:03.711Z,17.07
2023-04-27T09:06:54.046Z,17.00
2023-04-27T09:07:52.023Z,16.88
2023-04-27T09:08:52.002Z,17.04
2023-04-27T09:09:51.991Z,17.11
2023-04-27T09:10:51.977Z,17.00
2023-04-27T09:11:51.966Z,17.26
2023-04-27T09:12:52.064Z,17.40
2023-04-27T09:13:51.966Z,17.84
2023-04-27T09:14:51.934Z,17.86
2023-04-27T09:15:51.963Z,17.90
2023-04-27T09:16:52.000Z,17.75
2023-04-27T09:17:51.932Z,17.43
2023-04-27T09:18:51.924Z,17.48
2023-04-27T09:19:51.895Z,17.87
2023-04-27T09:20:51.946Z,17.49
2023-04-27T09:21:51.897Z,17.51
2023-04-27T09:22:51.881Z,17.31
2023-04-27T09:23:51.862Z,17.38
2023-04-27T09:24:51.864Z,17.55
2023-04-27T09:25:51.860Z,17.58
2023-04-27T09:26:51.816Z,17.70
2023-04-27T09:27:51.830Z,17.72
2023-04-27T09:28:51.816Z,17.90
2023-04-27T09:29:52.795Z,18.02
2023-04-27T09:30:51.814Z,17.86
2023-04-27T09:31:51.843Z,17.70
2023-04-27T09:32:51.788Z,17.95
2023-04-27T09:33:51.759Z,18.26
2023-04-27T09:34:51.770Z,18.10
2023-04-27T09:35:51.745Z,17.75
2023-04-27T09:36:51.823Z,17.68
2023-04-27T09:37:51.730Z,17.90
2023-04-27T09:38:51.717Z,18.18
2023-04-27T09:39:51.734Z,18.29
2023-04-27T09:40:51.696Z,18.36
2023-04-27T09:41:51.686Z,18.62
2023-04-27T09:42:51.682Z,18.84
2023-04-27T09:43:51.684Z,19.16
2023-04-27T09:44:51.646Z,19.07
2023-04-27T09:45:51.697Z,19.13
2023-04-27T09:46:51.672Z,19.02
2023-04-27T09:47:51.678Z,18.67
2023-04-27T09:48:51.642Z,18.60
2023-04-27T09:49:51.601Z,18.47
2023-04-27T09:50:51.599Z,18.14
2023-04-27T09:51:51.628Z,17.82
2023-04-27T09:52:51.604Z,17.78
2023-04-27T09:53:51.590Z,17.54
2023-04-27T09:54:51.561Z,17.51
2023-04-27T09:55:51.728Z,17.23
2023-04-27T09:56:52.564Z,17.16
2023-04-27T09:57:51.540Z,17.00
2023-04-27T09:58:51.520Z,16.53
2023-04-27T09:59:51.517Z,16.24
2023-04-27T10:00:51.524Z,16.35
2023-04-27T10:01:51.542Z,16.31
2023-04-27T10:02:53.661Z,16.43
2023-04-27T10:03:52.570Z,16.76
2023-04-27T10:04:51.486Z,16.93
2023-04-27T10:05:51.489Z,16.97
2023-04-27T10:06:51.441Z,17.08
2023-04-27T10:07:51.421Z,17.12
2023-04-27T10:08:51.408Z,17.12
2023-04-27T10:09:51.450Z,17.25
2023-04-27T10:10:51.395Z,17.38
2023-04-27T10:11:51.387Z,17.38
2023-04-27T10:12:51.408Z,17.59
2023-04-27T10:13:52.330Z,17.68
2023-04-27T10:14:51.360Z,17.74
2023-04-27T10:15:51.445Z,17.59
2023-04-27T10:16:51.379Z,17.59
2023-04-27T10:17:51.371Z,17.68
2023-04-27T10:18:51.320Z,17.63
2023-04-27T10:19:53.801Z,17.74
2023-04-27T10:20:51.331Z,17.84
2023-04-27T10:21:51.298Z,18.00
2023-04-27T10:22:51.394Z,18.05
2023-04-27T10:23:51.316Z,17.99
2023-04-27T10:24:51.260Z,17.95
2023-04-27T10:25:51.284Z,17.71
2023-04-27T10:26:51.243Z,17.81
2023-04-27T10:27:51.239Z,18.08
2023-04-27T10:28:51.229Z,17.81
2023-04-27T10:29:51.221Z,17.89
2023-04-27T10:30:51.254Z,17.66
2023-04-27T10:31:51.212Z,17.28
2023-04-27T10:32:51.316Z,17.03
2023-04-27T10:33:51.174Z,16.93
2023-04-27T10:34:51.178Z,16.83
2023-04-27T10:35:51.161Z,16.48
2023-04-27T10:36:51.148Z,16.07
2023-04-27T10:37:51.155Z,15.87
2023-04-27T10:38:51.180Z,15.69
2023-04-27T10:39:52.239Z,15.74
2023-04-27T10:40:51.107Z,15.83
2023-04-27T10:41:51.132Z,16.00
2023-04-27T10:42:51.107Z,16.30
2023-04-27T10:43:51.089Z,16.34
2023-04-27T10:44:51.136Z,16.42
2023-04-27T10:45:51.103Z,16.35
2023-04-27T10:46:51.081Z,16.39
2023-04-27T10:47:51.106Z,16.63
2023-04-27T10:48:51.033Z,16.83
2023-04-27T10:49:51.027Z,16.79
2023-04-27T10:50:51.047Z,16.75
2023-04-27T10:51:51.011Z,16.34
2023-04-27T10:52:51.057Z,16.12
2023-04-27T10:53:51.062Z,16.08
2023-04-27T10:54:50.994Z,15.87
2023-04-27T10:55:50.979Z,15.51
2023-04-27T10:56:50.951Z,15.20
2023-04-27T10:57:51.058Z,14.98
2023-04-27T10:58:50.956Z,14.91
2023-04-27T10:59:50.953Z,14.58
2023-04-27T11:00:50.920Z,14.18
2023-04-27T11:01:50.941Z,14.20
2023-04-27T11:02:50.932Z,14.35
2023-04-27T11:03:50.982Z,14.57
2023-04-27T11:04:50.987Z,14.29
2023-04-27T11:05:50.942Z,14.54
2023-04-27T11:06:50.871Z,14.62
2023-04-27T11:07:50.852Z,14.70
2023-04-27T11:08:50.866Z,14.45
2023-04-27T11:09:50.820Z,14.29
2023-04-27T11:10:50.844Z,14.43
2023-04-27T11:11:50.830Z,14.55
2023-04-27T11:12:50.831Z,14.68
2023-04-27T11:13:50.835Z,14.83
2023-04-27T11:14:50.779Z,15.16
2023-04-27T11:15:50.855Z,15.44
2023-04-27T11:16:50.775Z,15.44
2023-04-27T11:17:50.787Z,15.36
2023-04-27T11:18:50.761Z,15.49
2023-04-27T11:19:50.728Z,15.65
2023-04-27T11:20:50.716Z,15.84
2023-04-27T11:21:50.740Z,15.94
2023-04-27T11:22:50.693Z,15.62
2023-04-27T11:23:50.710Z,15.60
2023-04-27T11:24:50.698Z,15.49
2023-04-27T11:25:50.664Z,15.44
2023-04-27T11:26:50.694Z,15.39
2023-04-27T11:27:50.646Z,15.57
2023-04-27T11:28:50.641Z,15.84
2023-04-27T11:29:50.717Z,16.00
2023-04-27T11:30:50.629Z,16.07
2023-04-27T11:31:50.645Z,16.05
2023-04-27T11:32:50.623Z,16.01
2023-04-27T11:33:50.612Z,15.94
2023-04-27T11:34:50.592Z,15.64
2023-04-27T11:35:50.593Z,15.60
2023-04-27T11:36:50.566Z,15.82
2023-04-27T11:37:50.553Z,16.04
2023-04-27T11:38:50.586Z,16.33
2023-04-27T11:39:50.557Z,16.07
2023-04-27T11:40:50.527Z,16.00
2023-04-27T11:41:50.498Z,16.14
2023-04-27T11:42:50.507Z,16.25
2023-04-27T11:43:50.492Z,16.52
2023-04-27T11:44:50.537Z,16.78
2023-04-27T11:45:50.487Z,16.86
2023-04-27T11:46:50.508Z,16.94
2023-04-27T11:47:50.488Z,17.11
2023-04-27T11:48:50.438Z,16.83
2023-04-27T11:49:50.496Z,16.53
2023-04-27T11:50:50.452Z,16.38
2023-04-27T11:51:50.446Z,16.42
2023-04-27T11:52:50.422Z,16.15
2023-04-27T11:53:50.388Z,16.04
2023-04-27T11:54:50.410Z,16.11
2023-04-27T11:55:50.410Z,16.41
2023-04-27T11:56:50.380Z,16.43
2023-04-27T11:57:50.376Z,16.66
2023-04-27T11:58:50.358Z,16.64
2023-04-27T11:59:50.372Z,16.75
2023-04-27T12:00:50.405Z,16.71
2023-04-27T12:01:50.377Z,16.79
2023-04-27T12:02:50.489Z,16.57
2023-04-27T12:03:50.518Z,16.56
2023-04-27T12:04:50.440Z,16.75
2023-04-27T12:05:50.384Z,16.79
2023-04-27T12:06:50.289Z,16.93
2023-04-27T12:07:50.281Z,16.94
2023-04-27T12:08:50.272Z,17.06
2023-04-27T12:09:50.269Z,17.03
2023-04-27T12:10:50.242Z,16.93
2023-04-27T12:11:50.294Z,16.86
2023-04-27T12:12:50.282Z,16.94
2023-04-27T12:13:50.206Z,16.78
2023-04-27T12:14:50.202Z,17.03
2023-04-27T12:15:50.187Z,16.85
2023-04-27T12:16:50.202Z,16.93
2023-04-27T12:17:50.262Z,16.98
2023-04-27T12:18:50.169Z,16.89
2023-04-27T12:19:50.216Z,16.56
2023-04-27T12:20:50.142Z,16.67
2023-04-27T12:21:50.154Z,16.60
2023-04-27T12:22:50.146Z,16.60
2023-04-27T12:23:50.141Z,16.64
2023-04-27T12:24:50.106Z,16.66
2023-04-27T12:25:50.137Z,16.83
2023-04-27T12:26:50.113Z,16.86
2023-04-27T12:27:50.092Z,16.98
2023-04-27T12:28:50.065Z,17.11
2023-04-27T12:29:50.073Z,17.16
2023-04-27T12:30:50.126Z,17.23
2023-04-27T12:31:50.055Z,17.22
2023-04-27T12:32:50.041Z,17.40
2023-04-27T12:33:50.033Z,17.43
2023-04-27T12:34:50.066Z,17.38
2023-04-27T12:35:50.002Z,17.59
2023-04-27T12:36:50.009Z,17.59
2023-04-27T12:37:50.004Z,17.71
2023-04-27T12:38:49.958Z,17.40
2023-04-27T12:39:49.997Z,17.30
2023-04-27T12:40:49.965Z,17.01
2023-04-27T12:41:49.952Z,17.03
2023-04-27T12:42:49.935Z,17.11
2023-04-27T12:43:49.935Z,17.22
2023-04-27T12:44:49.910Z,17.21
2023-04-27T12:45:50.008Z,17.16
2023-04-27T12:46:50.055Z,17.08
2023-04-27T12:48:01.118Z,17.07
2023-04-27T12:48:50.951Z,17.06
2023-04-27T12:49:49.875Z,17.00
2023-04-27T12:50:49.855Z,16.86
2023-04-27T12:51:49.846Z,17.11
2023-04-27T12:52:49.852Z,16.94
2023-04-27T12:53:49.810Z,16.88
2023-04-27T12:54:49.839Z,16.89
2023-04-27T12:55:49.801Z,16.94
2023-04-27T12:56:49.809Z,16.88
2023-04-27T12:57:49.821Z,16.73
2023-04-27T12:58:49.803Z,16.82
2023-04-27T12:59:49.762Z,16.94
2023-04-27T13:00:49.761Z,16.94
2023-04-27T13:01:49.773Z,16.82
2023-04-27T13:02:49.796Z,16.49
2023-04-27T13:03:49.890Z,16.35